Time,TemperatureF,DewpointF,PressureIn,WindDirection,WindDirectionDegrees,WindSpeedMPH,WindSpeedGustMPH,Humidity,HourlyPrecipIn,Conditions,Clouds,dailyrainin,SoftwareType,DateUTC
2013-07-24 00:00:00,80.0,69.3,30.11,ESE,112,4.0,10.0,70,0.00,,,-99.99,Weather View 32 v70,2013-07-24 04:00:00,
2013-07-24 00:10:00,80.0,68.0,30.10,ESE,112,1.0,9.0,67,0.00,,,-99.99,Weather View 32 v70,2013-07-24 04:10:00,
2013-07-24 00:20:00,80.0,68.9,30.10,East,90,7.0,9.0,69,0.00,,,-99.99,Weather View 32 v70,2013-07-24 04:20:00,
2013-07-24 00:30:00,80.0,67.6,30.10,East,90,7.0,10.0,66,0.00,,,-99.99,Weather View 32 v70,2013-07-24 04:30:00,
2013-07-24 00:40:00,80.0,68.9,30.10,East,90,9.0,11.0,69,0.00,,,-99.99,Weather View 32 v70,2013-07-24 04:40:00,
2013-07-24 00:50:00,80.0,68.0,30.09,East,90,8.0,11.0,67,0.00,,,-99.99,Weather View 32 v70,2013-07-24 04:50:00,
2013-07-24 01:00:00,80.0,67.1,30.09,ESE,112,7.0,11.0,65,0.00,,,-99.99,Weather View 32 v70,2013-07-24 05:00:00,
2013-07-24 01:10:00,80.0,68.0,30.09,East,90,11.0,12.0,67,0.00,,,-99.99,Weather View 32 v70,2013-07-24 05:10:00,
2013-07-24 01:20:00,80.0,67.1,30.08,East,90,7.0,12.0,65,0.00,,,-99.99,Weather View 32 v70,2013-07-24 05:20:00,
2013-07-24 01:30:00,80.0,68.4,30.08,East,90,6.0,12.0,68,0.00,,,-99.99,Weather View 32 v70,2013-07-24 05:30:00,
2013-07-24 01:40:00,80.0,66.7,30.08,ESE,112,3.0,12.0,64,0.00,,,-99.99,Weather View 32 v70,2013-07-24 05:40:00,
2013-07-24 01:50:00,80.0,65.8,30.07,East,90,6.0,12.0,62,0.00,,,-99.99,Weather View 32 v70,2013-07-24 05:50:00,
2013-07-24 02:00:00,80.0,65.3,30.07,East,90,6.0,12.0,61,0.00,,,-99.99,Weather View 32 v70,2013-07-24 06:00:00,
2013-07-24 02:10:00,80.0,64.8,30.06,East,90,7.0,12.0,60,0.00,,,-99.99,Weather View 32 v70,2013-07-24 06:10:00,
2013-07-24 02:20:00,80.0,64.3,30.06,ESE,112,2.0,12.0,59,0.00,,,-99.99,Weather View 32 v70,2013-07-24 06:20:00,
2013-07-24 02:30:00,79.0,62.9,30.06,East,90,8.0,12.0,58,0.00,,,-99.99,Weather View 32 v70,2013-07-24 06:30:00,
2013-07-24 02:40:00,80.0,61.3,30.06,East,90,6.0,12.0,53,0.00,,,-99.99,Weather View 32 v70,2013-07-24 06:40:00,
2013-07-24 02:50:00,79.0,60.3,30.06,East,90,5.0,12.0,53,0.00,,,-99.99,Weather View 32 v70,2013-07-24 06:50:00,
2013-07-24 03:00:00,79.0,60.3,30.06,East,90,7.0,12.0,53,0.00,,,-99.99,Weather View 32 v70,2013-07-24 07:00:00,
2013-07-24 03:10:00,79.0,58.7,30.06,East,90,7.0,12.0,50,0.00,,,-99.99,Weather View 32 v70,2013-07-24 07:10:00,
2013-07-24 03:20:00,79.0,62.9,30.06,ESE,112,6.0,12.0,58,0.00,,,-99.99,Weather View 32 v70,2013-07-24 07:20:00,
2013-07-24 03:30:00,79.0,62.9,30.06,East,90,10.0,12.0,58,0.00,,,-99.99,Weather View 32 v70,2013-07-24 07:30:00,
2013-07-24 03:40:00,79.0,60.9,30.06,ESE,112,3.0,12.0,54,0.00,,,-99.99,Weather View 32 v70,2013-07-24 07:40:00,
2013-07-24 03:50:00,79.0,63.9,30.06,East,90,5.0,12.0,60,0.00,,,-99.99,Weather View 32 v70,2013-07-24 07:50:00,
2013-07-24 04:00:00,79.0,64.3,30.06,ESE,112,4.0,12.0,61,0.00,,,-99.99,Weather View 32 v70,2013-07-24 08:00:00,
2013-07-24 04:10:00,79.0,61.9,30.06,East,90,4.0,12.0,56,0.00,,,-99.99,Weather View 32 v70,2013-07-24 08:10:00,
2013-07-24 04:20:00,79.0,61.9,30.06,East,90,6.0,12.0,56,0.00,,,-99.99,Weather View 32 v70,2013-07-24 08:20:00,
2013-07-24 04:30:00,79.0,61.4,30.06,East,90,9.0,12.0,55,0.00,,,-99.99,Weather View 32 v70,2013-07-24 08:30:00,
2013-07-24 04:40:00,79.0,62.9,30.06,ESE,112,7.0,12.0,58,0.00,,,-99.99,Weather View 32 v70,2013-07-24 08:40:00,
2013-07-24 04:50:00,79.0,59.8,30.05,ESE,112,5.0,12.0,52,0.00,,,-99.99,Weather View 32 v70,2013-07-24 08:50:00,
2013-07-24 05:00:00,79.0,59.3,30.06,ESE,112,4.0,12.0,51,0.00,,,-99.99,Weather View 32 v70,2013-07-24 09:00:00,
2013-07-24 05:10:00,79.0,57.6,30.06,East,90,3.0,12.0,48,0.00,,,-99.99,Weather View 32 v70,2013-07-24 09:10:00,
2013-07-24 05:20:00,79.0,56.4,30.06,ESE,112,1.0,12.0,46,0.00,,,-99.99,Weather View 32 v70,2013-07-24 09:20:00,
2013-07-24 05:30:00,79.0,58.1,30.06,ESE,112,5.0,12.0,49,0.00,,,-99.99,Weather View 32 v70,2013-07-24 09:30:00,
2013-07-24 05:40:00,80.0,61.8,30.06,East,90,6.0,12.0,54,0.00,,,-99.99,Weather View 32 v70,2013-07-24 09:40:00,
2013-07-24 05:50:00,80.0,62.3,30.06,East,90,9.0,12.0,55,0.00,,,-99.99,Weather View 32 v70,2013-07-24 09:50:00,
2013-07-24 06:00:00,81.0,65.3,30.06,ESE,112,4.0,12.0,59,0.00,,,-99.99,Weather View 32 v70,2013-07-24 10:00:00,
2013-07-24 06:10:00,81.0,69.0,30.06,East,90,3.0,12.0,67,0.00,,,-99.99,Weather View 32 v70,2013-07-24 10:10:00,
2013-07-24 06:20:00,81.0,71.9,30.06,ESE,112,4.0,12.0,74,0.00,,,-99.99,Weather View 32 v70,2013-07-24 10:20:00,
2013-07-24 06:30:00,81.0,71.9,30.07,East,90,10.0,12.0,74,0.00,,,-99.99,Weather View 32 v70,2013-07-24 10:30:00,
2013-07-24 06:40:00,81.0,70.7,30.08,ESE,112,1.0,12.0,71,0.00,,,-99.99,Weather View 32 v70,2013-07-24 10:40:00,
2013-07-24 06:50:00,81.0,71.1,30.08,ESE,112,6.0,12.0,72,0.00,,,-99.99,Weather View 32 v70,2013-07-24 10:50:00,
2013-07-24 07:00:00,81.0,73.8,30.08,East,90,10.0,12.0,79,0.00,,,-99.99,Weather View 32 v70,2013-07-24 11:00:00,
2013-07-24 07:10:00,82.0,74.8,30.08,East,90,9.0,12.0,79,0.00,,,-99.99,Weather View 32 v70,2013-07-24 11:10:00,
2013-07-24 07:20:00,81.0,71.1,30.08,East,90,10.0,12.0,72,0.00,,,-99.99,Weather View 32 v70,2013-07-24 11:20:00,
2013-07-24 07:30:00,81.0,70.7,30.08,East,90,7.0,12.0,71,0.00,,,-99.99,Weather View 32 v70,2013-07-24 11:30:00,
2013-07-24 07:40:00,81.0,71.9,30.08,ESE,112,6.0,12.0,74,0.00,,,-99.99,Weather View 32 v70,2013-07-24 11:40:00,
2013-07-24 07:50:00,82.0,73.7,30.08,East,90,9.0,13.0,76,0.00,,,-99.99,Weather View 32 v70,2013-07-24 11:50:00,
2013-07-24 08:00:00,82.0,73.7,30.08,ESE,112,9.0,13.0,76,0.00,,,-99.99,Weather View 32 v70,2013-07-24 12:00:00,
2013-07-24 08:10:00,82.0,74.4,30.08,East,90,8.0,13.0,78,0.00,,,-99.99,Weather View 32 v70,2013-07-24 12:10:00,
2013-07-24 08:20:00,83.0,76.5,30.08,ESE,112,4.0,13.0,81,0.00,,,-99.99,Weather View 32 v70,2013-07-24 12:20:00,
2013-07-24 08:30:00,83.0,76.5,30.08,ESE,112,5.0,13.0,81,0.00,,,-99.99,Weather View 32 v70,2013-07-24 12:30:00,
2013-07-24 08:40:00,83.0,76.2,30.08,East,90,4.0,13.0,80,0.00,,,-99.99,Weather View 32 v70,2013-07-24 12:40:00,
2013-07-24 08:50:00,83.0,76.5,30.08,ESE,112,3.0,12.0,81,0.00,,,-99.99,Weather View 32 v70,2013-07-24 12:50:00,
2013-07-24 09:00:00,83.0,77.6,30.08,ESE,112,5.0,12.0,84,0.00,,,-99.99,Weather View 32 v70,2013-07-24 13:00:00,
2013-07-24 09:10:00,83.0,76.9,30.08,ESE,112,5.0,12.0,82,0.00,,,-99.99,Weather View 32 v70,2013-07-24 13:10:00,
2013-07-24 09:20:00,83.0,76.5,30.08,ESE,112,6.0,12.0,81,0.00,,,-99.99,Weather View 32 v70,2013-07-24 13:20:00,
2013-07-24 09:30:00,83.0,77.3,30.08,ESE,112,5.0,12.0,83,0.00,,,-99.99,Weather View 32 v70,2013-07-24 13:30:00,
2013-07-24 09:40:00,83.0,76.2,30.08,East,90,7.0,12.0,80,0.00,,,-99.99,Weather View 32 v70,2013-07-24 13:40:00,
2013-07-24 09:50:00,82.0,74.4,30.09,East,90,7.0,13.0,78,0.00,,,-99.99,Weather View 32 v70,2013-07-24 13:50:00,
2013-07-24 10:00:00,83.0,75.8,30.08,East,90,9.0,14.0,79,0.00,,,-99.99,Weather View 32 v70,2013-07-24 14:00:00,
2013-07-24 10:10:00,83.0,76.5,30.08,East,90,10.0,14.0,81,0.00,,,-99.99,Weather View 32 v70,2013-07-24 14:10:00,
2013-07-24 10:20:00,83.0,75.8,30.08,East,90,9.0,14.0,79,0.00,,,-99.99,Weather View 32 v70,2013-07-24 14:20:00,
2013-07-24 10:30:00,83.0,75.8,30.08,East,90,8.0,14.0,79,0.00,,,-99.99,Weather View 32 v70,2013-07-24 14:30:00,
2013-07-24 10:40:00,83.0,76.5,30.08,ESE,112,8.0,14.0,81,0.00,,,-99.99,Weather View 32 v70,2013-07-24 14:40:00,
2013-07-24 10:50:00,83.0,76.5,30.08,ESE,112,4.0,14.0,81,0.00,,,-99.99,Weather View 32 v70,2013-07-24 14:50:00,
2013-07-24 11:00:00,83.0,76.5,30.08,East,90,8.0,13.0,81,0.00,,,-99.99,Weather View 32 v70,2013-07-24 15:00:00,
2013-07-24 11:10:00,83.0,74.6,30.08,East,90,7.0,13.0,76,0.00,,,-99.99,Weather View 32 v70,2013-07-24 15:10:00,
2013-07-24 11:30:00,83.0,74.6,30.08,East,90,7.0,13.0,76,0.00,,,-99.99,Weather View 32 v70,2013-07-24 15:30:00,
2013-07-24 11:40:00,82.0,73.3,30.08,East,90,9.0,13.0,75,0.00,,,-99.99,Weather View 32 v70,2013-07-24 15:40:00,
2013-07-24 11:50:00,82.0,73.7,30.08,East,90,6.0,13.0,76,0.00,,,-99.99,Weather View 32 v70,2013-07-24 15:50:00,
2013-07-24 12:10:00,82.0,75.2,30.08,East,90,7.0,13.0,80,0.00,,,-99.99,Weather View 32 v70,2013-07-24 16:10:00,
2013-07-24 12:20:00,83.0,75.4,30.08,East,90,7.0,12.0,78,0.00,,,-99.99,Weather View 32 v70,2013-07-24 16:20:00,
2013-07-24 12:30:00,83.0,75.8,30.08,East,90,10.0,11.0,79,0.00,,,-99.99,Weather View 32 v70,2013-07-24 16:30:00,
2013-07-24 12:40:00,82.0,75.6,30.07,East,90,10.0,12.0,81,0.00,,,-99.99,Weather View 32 v70,2013-07-24 16:40:00,
2013-07-24 12:42:00,82.0,73.3,30.08,East,90,7.0,13.0,75,0.00,,,-99.99,Weather View 32 v70,2013-07-24 16:42:00,
2013-07-24 12:50:00,83.0,76.9,30.08,East,90,9.0,12.0,82,0.00,,,-99.99,Weather View 32 v70,2013-07-24 16:50:00,
2013-07-24 13:00:00,83.0,75.8,30.07,ENE,67,9.0,12.0,79,0.00,,,-99.99,Weather View 32 v70,2013-07-24 17:00:00,
2013-07-24 13:10:00,82.0,74.4,30.07,ENE,67,9.0,12.0,78,0.00,,,-99.99,Weather View 32 v70,2013-07-24 17:10:00,
2013-07-24 13:20:00,83.0,76.5,30.07,East,90,7.0,12.0,81,0.00,,,-99.99,Weather View 32 v70,2013-07-24 17:20:00,
2013-07-24 13:22:00,82.0,75.6,30.08,East,90,8.0,13.0,81,0.00,,,-99.99,Weather View 32 v70,2013-07-24 17:22:00,
2013-07-24 13:30:00,83.0,77.3,30.07,East,90,10.0,12.0,83,0.00,,,-99.99,Weather View 32 v70,2013-07-24 17:30:00,
2013-07-24 13:40:00,83.0,76.5,30.06,ENE,67,7.0,11.0,81,0.00,,,-99.99,Weather View 32 v70,2013-07-24 17:40:00,
2013-07-24 13:50:00,82.0,73.3,30.06,ENE,67,8.0,11.0,75,0.00,,,-99.99,Weather View 32 v70,2013-07-24 17:50:00,
2013-07-24 14:00:00,82.0,72.9,30.06,ENE,67,9.0,12.0,74,0.00,,,-99.99,Weather View 32 v70,2013-07-24 18:00:00,
2013-07-24 14:20:00,82.0,73.7,30.06,ENE,67,9.0,13.0,76,0.00,,,-99.99,Weather View 32 v70,2013-07-24 18:20:00,
2013-07-24 14:30:00,82.0,69.9,30.06,ENE,67,10.0,13.0,67,0.03,,,-99.99,Weather View 32 v70,2013-07-24 18:30:00,
2013-07-24 14:40:00,82.0,65.7,30.05,ENE,67,7.0,13.0,58,0.03,,,-99.99,Weather View 32 v70,2013-07-24 18:40:00,
2013-07-24 14:50:00,81.0,65.8,30.06,ENE,67,7.0,13.0,60,0.04,,,-99.99,Weather View 32 v70,2013-07-24 18:50:00,
2013-07-24 15:00:00,82.0,67.6,30.05,ENE,67,6.0,13.0,62,0.04,,,-99.99,Weather View 32 v70,2013-07-24 19:00:00,
2013-07-24 15:30:00,82.0,68.6,30.05,ENE,67,7.0,10.0,64,0.01,,,-99.99,Weather View 32 v70,2013-07-24 19:30:00,
2013-07-24 15:32:00,82.0,74.8,30.06,ENE,67,10.0,12.0,79,0.00,,,-99.99,Weather View 32 v70,2013-07-24 19:32:00,
2013-07-24 15:40:00,81.0,70.2,30.05,ENE,67,7.0,10.0,70,0.01,,,-99.99,Weather View 32 v70,2013-07-24 19:40:00,
2013-07-24 16:32:00,82.0,69.5,30.05,ENE,67,7.0,13.0,66,0.04,,,-99.99,Weather View 32 v70,2013-07-24 20:32:00,
2013-07-24 16:42:00,82.0,68.6,30.05,ENE,67,6.0,10.0,64,0.04,,,-99.99,Weather View 32 v70,2013-07-24 20:42:00,
2013-07-24 17:12:00,81.0,67.2,30.05,East,90,6.0,9.0,63,0.00,,,-99.99,Weather View 32 v70,2013-07-24 21:12:00,
2013-07-24 17:22:00,81.0,67.6,30.04,ENE,67,5.0,9.0,64,0.00,,,-99.99,Weather View 32 v70,2013-07-24 21:22:00,
2013-07-24 17:30:00,81.0,67.6,30.04,East,90,5.0,7.0,64,0.00,,,-99.99,Weather View 32 v70,2013-07-24 21:30:00,
2013-07-24 17:32:00,81.0,69.8,30.04,East,90,6.0,9.0,69,0.00,,,-99.99,Weather View 32 v70,2013-07-24 21:32:00,
2013-07-24 17:40:00,81.0,68.5,30.04,East,90,5.0,8.0,66,0.00,,,-99.99,Weather View 32 v70,2013-07-24 21:40:00,
2013-07-24 17:42:00,81.0,69.4,30.04,ENE,67,6.0,9.0,68,0.00,,,-99.99,Weather View 32 v70,2013-07-24 21:42:00,
2013-07-24 17:50:00,81.0,69.4,30.04,East,90,3.0,8.0,68,0.00,,,-99.99,Weather View 32 v70,2013-07-24 21:50:00,
2013-07-24 17:52:00,81.0,69.8,30.04,East,90,6.0,9.0,69,0.00,,,-99.99,Weather View 32 v70,2013-07-24 21:52:00,
2013-07-24 18:02:00,82.0,69.9,30.04,ENE,67,7.0,9.0,67,0.00,,,-99.99,Weather View 32 v70,2013-07-24 22:02:00,
2013-07-24 18:12:00,82.0,69.9,30.04,East,90,5.0,8.0,67,0.00,,,-99.99,Weather View 32 v70,2013-07-24 22:12:00,
2013-07-24 18:22:00,82.0,69.9,30.04,East,90,5.0,8.0,67,0.00,,,-99.99,Weather View 32 v70,2013-07-24 22:22:00,
2013-07-24 18:32:00,81.0,69.4,30.05,East,90,6.0,7.0,68,0.00,,,-99.99,Weather View 32 v70,2013-07-24 22:32:00,
2013-07-24 18:42:00,81.0,69.4,30.04,East,90,6.0,7.0,68,0.00,,,-99.99,Weather View 32 v70,2013-07-24 22:42:00,
2013-07-24 19:22:00,82.0,70.8,30.04,East,90,6.0,8.0,69,0.00,,,-99.99,Weather View 32 v70,2013-07-24 23:22:00,
2013-07-24 19:32:00,81.0,70.7,30.04,East,90,5.0,8.0,71,0.00,,,-99.99,Weather View 32 v70,2013-07-24 23:32:00,
2013-07-24 19:42:00,81.0,69.0,30.05,East,90,5.0,8.0,67,0.00,,,-99.99,Weather View 32 v70,2013-07-24 23:42:00,
2013-07-24 19:52:00,81.0,69.0,30.05,East,90,5.0,8.0,67,0.00,,,-99.99,Weather View 32 v70,2013-07-24 23:52:00,
2013-07-24 20:00:00,81.0,65.3,30.07,ESE,112,1.0,9.0,59,0.00,,,-99.99,Weather View 32 v70,2013-07-25 00:00:00,
2013-07-24 20:02:00,81.0,67.6,30.05,East,90,4.0,8.0,64,0.00,,,-99.99,Weather View 32 v70,2013-07-25 00:02:00,
2013-07-24 20:12:00,81.0,67.6,30.05,ESE,112,2.0,8.0,64,0.00,,,-99.99,Weather View 32 v70,2013-07-25 00:12:00,
2013-07-24 20:22:00,81.0,67.2,30.06,East,90,7.0,8.0,63,0.00,,,-99.99,Weather View 32 v70,2013-07-25 00:22:00,
2013-07-24 20:32:00,81.0,66.7,30.05,East,90,5.0,9.0,62,0.00,,,-99.99,Weather View 32 v70,2013-07-25 00:32:00,
2013-07-24 20:40:00,81.0,67.2,30.08,East,90,6.0,8.0,63,0.00,,,-99.99,Weather View 32 v70,2013-07-25 00:40:00,
2013-07-24 20:42:00,81.0,66.2,30.06,ESE,112,0.0,9.0,61,0.00,,,-99.99,Weather View 32 v70,2013-07-25 00:42:00,
2013-07-24 20:52:00,81.0,65.3,30.06,ESE,112,1.0,9.0,59,0.00,,,-99.99,Weather View 32 v70,2013-07-25 00:52:00,
2013-07-24 21:02:00,81.0,65.3,30.06,ESE,112,3.0,9.0,59,0.00,,,-99.99,Weather View 32 v70,2013-07-25 01:02:00,
2013-07-24 21:12:00,81.0,66.2,30.07,ESE,112,3.0,9.0,61,0.00,,,-99.99,Weather View 32 v70,2013-07-25 01:12:00,
2013-07-24 21:30:00,81.0,64.3,30.10,ESE,112,1.0,9.0,57,0.00,,,-99.99,Weather View 32 v70,2013-07-25 01:30:00,
2013-07-24 21:32:00,81.0,66.2,30.08,East,90,1.0,7.0,61,0.00,,,-99.99,Weather View 32 v70,2013-07-25 01:32:00,
2013-07-24 21:42:00,81.0,68.1,30.08,ESE,112,3.0,7.0,65,0.00,,,-99.99,Weather View 32 v70,2013-07-25 01:42:00,
2013-07-24 21:52:00,81.0,68.5,30.08,East,90,4.0,8.0,66,0.00,,,-99.99,Weather View 32 v70,2013-07-25 01:52:00,
2013-07-24 22:12:00,81.0,67.6,30.09,East,90,7.0,9.0,64,0.00,,,-99.99,Weather View 32 v70,2013-07-25 02:12:00,
2013-07-24 22:22:00,81.0,68.1,30.09,East,90,6.0,9.0,65,0.00,,,-99.99,Weather View 32 v70,2013-07-25 02:22:00,
2013-07-24 22:32:00,81.0,66.2,30.10,East,90,4.0,9.0,61,0.00,,,-99.99,Weather View 32 v70,2013-07-25 02:32:00,
2013-07-24 22:40:00,80.0,56.7,30.08,ESE,112,0.0,7.0,45,0.00,,,-99.99,Weather View 32 v70,2013-07-25 02:40:00,
2013-07-24 22:42:00,81.0,65.3,30.10,ESE,112,2.0,9.0,59,0.00,,,-99.99,Weather View 32 v70,2013-07-25 02:42:00,
2013-07-24 22:50:00,80.0,55.4,30.08,ESE,112,2.0,7.0,43,0.00,,,-99.99,Weather View 32 v70,2013-07-25 02:50:00,
2013-07-24 23:00:00,80.0,55.4,30.08,ESE,112,2.0,7.0,43,0.00,,,-99.99,Weather View 32 v70,2013-07-25 03:00:00,
2013-07-24 23:02:00,81.0,63.8,30.10,ESE,112,2.0,9.0,56,0.00,,,-99.99,Weather View 32 v70,2013-07-25 03:02:00,
2013-07-24 23:10:00,80.0,59.1,30.08,ESE,112,6.0,8.0,49,0.00,,,-99.99,Weather View 32 v70,2013-07-25 03:10:00,
2013-07-24 23:20:00,81.0,55.0,30.07,ESE,112,7.0,9.0,41,0.00,,,-99.99,Weather View 32 v70,2013-07-25 03:20:00,
2013-07-24 23:22:00,81.0,58.8,30.10,ESE,112,3.0,9.0,47,0.00,,,-99.99,Weather View 32 v70,2013-07-25 03:22:00,
2013-07-24 23:30:00,80.0,54.8,30.07,East,90,2.0,9.0,42,0.00,,,-99.99,Weather View 32 v70,2013-07-25 03:30:00,
2013-07-24 23:32:00,81.0,60.0,30.09,East,90,3.0,7.0,49,0.00,,,-99.99,Weather View 32 v70,2013-07-25 03:32:00,
2013-07-24 23:40:00,80.0,52.7,30.08,East,90,0.0,9.0,39,0.00,,,-99.99,Weather View 32 v70,2013-07-25 03:40:00,
2013-07-24 23:42:00,81.0,60.0,30.09,ESE,112,2.0,7.0,49,0.00,,,-99.99,Weather View 32 v70,2013-07-25 03:42:00,
2013-07-24 23:50:00,80.0,53.4,30.08,ESE,112,0.0,9.0,40,0.00,,,-99.99,Weather View 32 v70,2013-07-25 03:50:00,
2013-07-24 23:52:00,80.0,57.3,30.08,ESE,112,0.0,7.0,46,0.00,,,-99.99,Weather View 32 v70,2013-07-25 03:52:00,